Scroll down
FLIGHT INFORMATION
Federal Express (FedEx)

FDX75

At Arrival Gate

PHNL
 NZAA
DATE: 2022-11-06
GATE: E
GATE DEPARTURE: 20:14
TAKEOFF: 20:25
DATE: 2022-11-07
GATE:  -
LANDING: 04:38
GATE ARRIVAL: 04:43
FLIGHT DATA
Crew: 
Speed: 
506 kts
Altitude: 
38,033 ft
Stage Length: 
3,827.5 nm
Block Time: 
8.5 hrs
Flight Time: 
8.2 hrs
Fuel Used: 
132,507 lb
Cleared Route: PHNL CARRP DATBE DASNE DULCE DUNEY PUPIS UXULU LANAT UBRAX POPIR KADEN MALNI TARIB AA NZAA
TRACK DATA
50,000 ft 1,000 kts
AIRCRAFT INFO AND CUMULATIVE STATS
Aircraft Type: 
B77LF
Registration: 
SELCAL: 
MSN/LN: 
40685 / 1576
Total Flights: 
3
Total Block Time: 
28.6 hrs
Total Flight Time: 
27.7 hrs
Total Fuel Used: 
475,356 lb
DATALINK LOG | Newest first | Current as of: 2023-01-30 08:56:14
LABEL SEQUENCE CONTENT Dn/Up
QD295304:43 19.5▼ Dn
QC244804:38▼ Dn
2U0027NZAA 062130Z AUTO 06013KT 030V090 9999 SCT040/// SCT048/// BKN060/// 19/10 Q1023 NOSIG▲ Up
2S0027NZAA▼ Dn
UM203210CLIMB TO 360▲ Up
UM132220AT 32 PAST THE HOUR EXPECT CLIMB TO 360▲ Up
DM67H2210WHEN CAN WE EXPECT CLIMB TO FL 360▼ Dn
UM0 UM191069UNABLE. MAINTAIN ASSIGNED ALTITUDE▲ Up
DM61059REQUEST FL 360 DUE TO WX▼ Dn
QB131020:25▼ Dn
QA015920:14 152▼ Dn
2U4344PHNL 061153Z 04007KT 10SM FEW025 FEW040 26/21 A3005 RMK AO2 SLP174 T02560206 10272 20250 58015▲ Up
2U4343NZCH 061230Z AUTO 06011KT 9999 BKN016/// 12/09 Q1024 TEMPO BKN013▲ Up
2U4343NZAA 061230Z AUTO 05009KT 9999 OVC075/// 16/11 Q1025 NOSIG▲ Up
2S4342PHNL NZAA NZCH NSTU▼ Dn
A34342CLEARED TO NZAA VIA OPIHI3 CARRP DATBE DASNE G347 AA . SQUAWK 3043.▲ Up
B34341PHNL NZAA FDX75 N879FD ▼ Dn
Q04139[LINK ACK]▲ Up
Q04139[LINK TEST]▼ Dn


AIRCRAFT HISTORY
FLIGHT DATE FLIGHT NO. ORIGIN DESTINATION CLEARED ROUTE BLOCK TIME FLIGHT TIME FUEL USED PILOT
2022-11-06FDX75PHNL NZAA PHNL CARRP DATBE DASNE DULCE DUNEY PUPIS UXULU LANAT UBRAX POPIR KADEN MALNI TARIB AA NZAA8.5 hrs8.2 hrs132,507 lbAllan Burek
2022-08-25FDX5601WSSS PHNL WSSS HOSBA TOMAN OBLOT ESPIT SABIP KAMIN DARMU SAKMA BRU50 BRU REKOS OSTAN ARAVI ANKOB VSN VIMAG ANKUR PILAS ZAM GOSTO SABTA COT LINAO DEWIN KLAFU 09E30 12E40 UNZ BAGBE HOPPY FONUG STINE DEWSS JIMOS NGUEN NATIE RESEE SYSTA BRIUN HOOPA KATHS PHNL12.7 hrs12.5 hrs226,715 lbAllan Burek
2021-03-15FDX613OMDB WSSS OMDB IVURO SUTVO GOMTA TARBO MUNGA MIXOL VAXIM SETSI PARAR DOGET SUGID BEKUT ENTUG AGELA BOGAT DORAM VIRAM GURAS VATMO IDASO BIKEN LAGOG IGOGU NILAM MEKAR VAMPI GUNIP GOBAS AGOSA VKL DUMOK ARAMA WSSS7.4 hrs6.9 hrs116,134 lbCharles Harris